sensor_id;sensor_type;location;lat;lon;timestamp;P1;durP1;ratioP1;P2;durP2;ratioP2
35977;SDS011;22056;0.000;0.000;2022-12-07T00:00:49;4.13;;;0.95;;
35977;SDS011;22056;0.000;0.000;2022-12-07T00:03:15;4.70;;;1.02;;
35977;SDS011;22056;0.000;0.000;2022-12-07T00:05:41;3.50;;;0.98;;
35977;SDS011;22056;0.000;0.000;2022-12-07T00:08:07;2.70;;;0.80;;
35977;SDS011;22056;0.000;0.000;2022-12-07T00:10:34;8.15;;;1.27;;
35977;SDS011;22056;0.000;0.000;2022-12-07T00:13:00;5.28;;;1.05;;
35977;SDS011;22056;0.000;0.000;2022-12-07T00:15:26;3.72;;;1.08;;
35977;SDS011;22056;0.000;0.000;2022-12-07T00:17:52;3.35;;;0.82;;
35977;SDS011;22056;0.000;0.000;2022-12-07T00:20:18;1.90;;;1.00;;
35977;SDS011;22056;0.000;0.000;2022-12-07T00:22:44;2.22;;;0.70;;
35977;SDS011;22056;0.000;0.000;2022-12-07T00:25:10;3.83;;;1.00;;
35977;SDS011;22056;0.000;0.000;2022-12-07T00:27:37;2.97;;;0.80;;
35977;SDS011;22056;0.000;0.000;2022-12-07T00:30:03;2.25;;;0.80;;
35977;SDS011;22056;0.000;0.000;2022-12-07T00:32:29;3.38;;;0.90;;
35977;SDS011;22056;0.000;0.000;2022-12-07T00:34:55;4.80;;;0.80;;
35977;SDS011;22056;0.000;0.000;2022-12-07T00:37:22;4.55;;;1.00;;
35977;SDS011;22056;0.000;0.000;2022-12-07T00:39:48;1.50;;;0.60;;
35977;SDS011;22056;0.000;0.000;2022-12-07T00:42:14;1.95;;;0.73;;
35977;SDS011;22056;0.000;0.000;2022-12-07T00:44:40;2.45;;;0.70;;
35977;SDS011;22056;0.000;0.000;2022-12-07T00:47:06;1.90;;;0.80;;
35977;SDS011;22056;0.000;0.000;2022-12-07T00:49:32;1.98;;;0.82;;
35977;SDS011;22056;0.000;0.000;2022-12-07T00:51:59;2.63;;;0.60;;
35977;SDS011;22056;0.000;0.000;2022-12-07T00:54:25;1.73;;;0.80;;
35977;SDS011;22056;0.000;0.000;2022-12-07T00:56:51;2.05;;;0.60;;
35977;SDS011;22056;0.000;0.000;2022-12-07T00:59:17;2.28;;;1.00;;
35977;SDS011;22056;0.000;0.000;2022-12-07T01:01:43;1.85;;;0.80;;
35977;SDS011;22056;0.000;0.000;2022-12-07T01:04:09;3.15;;;0.60;;
35977;SDS011;22056;0.000;0.000;2022-12-07T01:06:36;3.63;;;0.90;;
35977;SDS011;22056;0.000;0.000;2022-12-07T01:09:03;1.38;;;0.80;;
35977;SDS011;22056;0.000;0.000;2022-12-07T01:11:31;1.98;;;0.75;;
35977;SDS011;22056;0.000;0.000;2022-12-07T01:13:57;1.48;;;0.60;;
35977;SDS011;22056;0.000;0.000;2022-12-07T01:16:25;1.25;;;0.60;;
35977;SDS011;22056;0.000;0.000;2022-12-07T01:18:52;0.98;;;0.60;;
35977;SDS011;22056;0.000;0.000;2022-12-07T01:21:19;3.40;;;0.80;;
35977;SDS011;22056;0.000;0.000;2022-12-07T01:23:46;2.08;;;0.80;;
35977;SDS011;22056;0.000;0.000;2022-12-07T01:26:14;1.10;;;0.60;;
35977;SDS011;22056;0.000;0.000;2022-12-07T01:28:41;1.35;;;0.57;;
35977;SDS011;22056;0.000;0.000;2022-12-07T01:31:08;2.97;;;1.15;;
35977;SDS011;22056;0.000;0.000;2022-12-07T01:36:14;0.88;;;0.57;;
35977;SDS011;22056;0.000;0.000;2022-12-07T01:38:40;1.42;;;0.70;;
35977;SDS011;22056;0.000;0.000;2022-12-07T01:41:07;2.30;;;0.75;;
35977;SDS011;22056;0.000;0.000;2022-12-07T01:43:34;2.42;;;0.77;;
35977;SDS011;22056;0.000;0.000;2022-12-07T01:46:00;1.00;;;0.50;;
35977;SDS011;22056;0.000;0.000;2022-12-07T01:48:34;1.25;;;0.50;;
35977;SDS011;22056;0.000;0.000;2022-12-07T01:51:03;0.80;;;0.50;;
35977;SDS011;22056;0.000;0.000;2022-12-07T01:53:30;4.47;;;0.63;;
35977;SDS011;22056;0.000;0.000;2022-12-07T01:55:57;1.45;;;0.50;;
35977;SDS011;22056;0.000;0.000;2022-12-07T01:58:25;0.82;;;0.63;;
35977;SDS011;22056;0.000;0.000;2022-12-07T02:00:51;1.27;;;0.50;;
35977;SDS011;22056;0.000;0.000;2022-12-07T02:03:19;0.90;;;0.60;;
35977;SDS011;22056;0.000;0.000;2022-12-07T02:05:46;1.58;;;0.60;;
35977;SDS011;22056;0.000;0.000;2022-12-07T02:08:12;1.42;;;0.50;;
35977;SDS011;22056;0.000;0.000;2022-12-07T02:10:39;1.35;;;0.65;;
35977;SDS011;22056;0.000;0.000;2022-12-07T02:16:07;0.77;;;0.50;;
35977;SDS011;22056;0.000;0.000;2022-12-07T02:29:58;0.70;;;0.50;;
35977;SDS011;22056;0.000;0.000;2022-12-07T02:32:27;1.42;;;0.52;;
35977;SDS011;22056;0.000;0.000;2022-12-07T02:37:27;1.13;;;0.65;;
35977;SDS011;22056;0.000;0.000;2022-12-07T02:39:58;1.50;;;0.73;;
35977;SDS011;22056;0.000;0.000;2022-12-07T02:42:30;2.58;;;0.70;;
35977;SDS011;22056;0.000;0.000;2022-12-07T02:44:57;1.20;;;0.60;;
35977;SDS011;22056;0.000;0.000;2022-12-07T02:47:25;1.08;;;0.70;;
35977;SDS011;22056;0.000;0.000;2022-12-07T02:49:52;0.75;;;0.50;;
35977;SDS011;22056;0.000;0.000;2022-12-07T02:52:18;0.98;;;0.60;;
35977;SDS011;22056;0.000;0.000;2022-12-07T02:54:44;0.43;;;0.40;;
35977;SDS011;22056;0.000;0.000;2022-12-07T03:07:32;1.17;;;0.50;;
35977;SDS011;22056;0.000;0.000;2022-12-07T03:10:13;1.33;;;0.77;;
35977;SDS011;22056;0.000;0.000;2022-12-07T03:13:23;0.65;;;0.40;;
35977;SDS011;22056;0.000;0.000;2022-12-07T03:15:54;0.77;;;0.50;;
35977;SDS011;22056;0.000;0.000;2022-12-07T03:18:16;1.10;;;0.50;;
35977;SDS011;22056;0.000;0.000;2022-12-07T03:20:44;1.20;;;0.60;;
35977;SDS011;22056;0.000;0.000;2022-12-07T03:23:11;1.35;;;0.50;;
35977;SDS011;22056;0.000;0.000;2022-12-07T03:25:42;1.20;;;0.50;;
35977;SDS011;22056;0.000;0.000;2022-12-07T03:28:11;1.08;;;0.65;;
35977;SDS011;22056;0.000;0.000;2022-12-07T03:30:46;0.40;;;0.38;;
35977;SDS011;22056;0.000;0.000;2022-12-07T03:33:36;0.35;;;0.32;;
35977;SDS011;22056;0.000;0.000;2022-12-07T03:36:01;0.85;;;0.50;;
35977;SDS011;22056;0.000;0.000;2022-12-07T03:38:36;0.95;;;0.82;;
35977;SDS011;22056;0.000;0.000;2022-12-07T03:41:08;1.90;;;0.63;;
35977;SDS011;22056;0.000;0.000;2022-12-07T03:43:35;0.77;;;0.50;;
35977;SDS011;22056;0.000;0.000;2022-12-07T03:46:06;0.75;;;0.47;;
35977;SDS011;22056;0.000;0.000;2022-12-07T03:48:56;1.50;;;0.60;;
35977;SDS011;22056;0.000;0.000;2022-12-07T03:51:27;1.05;;;0.50;;
35977;SDS011;22056;0.000;0.000;2022-12-07T03:53:57;0.73;;;0.50;;
35977;SDS011;22056;0.000;0.000;2022-12-07T03:56:24;0.95;;;0.55;;
35977;SDS011;22056;0.000;0.000;2022-12-07T03:58:51;0.82;;;0.50;;
35977;SDS011;22056;0.000;0.000;2022-12-07T04:01:18;0.60;;;0.52;;
35977;SDS011;22056;0.000;0.000;2022-12-07T04:03:44;1.00;;;0.40;;
35977;SDS011;22056;0.000;0.000;2022-12-07T04:06:10;1.58;;;0.50;;
35977;SDS011;22056;0.000;0.000;2022-12-07T04:08:37;0.82;;;0.63;;
35977;SDS011;22056;0.000;0.000;2022-12-07T04:11:03;1.48;;;0.40;;
35977;SDS011;22056;0.000;0.000;2022-12-07T04:13:29;0.47;;;0.47;;
35977;SDS011;22056;0.000;0.000;2022-12-07T04:16:15;1.33;;;0.60;;
35977;SDS011;22056;0.000;0.000;2022-12-07T04:18:41;1.05;;;0.55;;
35977;SDS011;22056;0.000;0.000;2022-12-07T04:21:08;1.63;;;0.55;;
35977;SDS011;22056;0.000;0.000;2022-12-07T04:23:34;1.15;;;0.50;;
35977;SDS011;22056;0.000;0.000;2022-12-07T04:26:00;0.95;;;0.43;;
35977;SDS011;22056;0.000;0.000;2022-12-07T04:28:26;0.90;;;0.50;;
35977;SDS011;22056;0.000;0.000;2022-12-07T04:30:52;0.82;;;0.55;;
35977;SDS011;22056;0.000;0.000;2022-12-07T04:33:18;1.10;;;0.60;;
35977;SDS011;22056;0.000;0.000;2022-12-07T04:35:45;1.08;;;0.50;;
35977;SDS011;22056;0.000;0.000;2022-12-07T04:38:11;1.30;;;0.55;;
35977;SDS011;22056;0.000;0.000;2022-12-07T04:40:37;0.93;;;0.50;;
35977;SDS011;22056;0.000;0.000;2022-12-07T04:43:03;0.80;;;0.52;;
35977;SDS011;22056;0.000;0.000;2022-12-07T04:45:29;0.57;;;0.50;;
35977;SDS011;22056;0.000;0.000;2022-12-07T04:47:56;1.27;;;0.50;;
35977;SDS011;22056;0.000;0.000;2022-12-07T04:50:22;0.80;;;0.50;;
35977;SDS011;22056;0.000;0.000;2022-12-07T04:52:48;0.40;;;0.40;;
35977;SDS011;22056;0.000;0.000;2022-12-07T04:55:14;0.70;;;0.40;;
35977;SDS011;22056;0.000;0.000;2022-12-07T04:57:40;0.55;;;0.40;;
35977;SDS011;22056;0.000;0.000;2022-12-07T05:00:07;0.90;;;0.50;;
35977;SDS011;22056;0.000;0.000;2022-12-07T05:02:33;0.40;;;0.40;;
35977;SDS011;22056;0.000;0.000;2022-12-07T05:04:59;0.80;;;0.50;;
35977;SDS011;22056;0.000;0.000;2022-12-07T05:07:25;0.65;;;0.43;;
35977;SDS011;22056;0.000;0.000;2022-12-07T05:09:51;0.80;;;0.50;;
35977;SDS011;22056;0.000;0.000;2022-12-07T05:12:18;1.50;;;0.50;;
35977;SDS011;22056;0.000;0.000;2022-12-07T05:14:44;0.75;;;0.50;;
35977;SDS011;22056;0.000;0.000;2022-12-07T05:17:10;0.98;;;0.40;;
35977;SDS011;22056;0.000;0.000;2022-12-07T05:19:37;3.05;;;0.60;;
35977;SDS011;22056;0.000;0.000;2022-12-07T05:22:03;0.98;;;0.50;;
35977;SDS011;22056;0.000;0.000;2022-12-07T05:24:29;1.52;;;0.50;;
35977;SDS011;22056;0.000;0.000;2022-12-07T05:26:55;1.85;;;0.52;;
35977;SDS011;22056;0.000;0.000;2022-12-07T05:29:21;1.20;;;0.43;;
35977;SDS011;22056;0.000;0.000;2022-12-07T05:31:47;0.80;;;0.57;;
35977;SDS011;22056;0.000;0.000;2022-12-07T05:34:14;2.45;;;0.70;;
35977;SDS011;22056;0.000;0.000;2022-12-07T05:36:40;0.68;;;0.50;;
35977;SDS011;22056;0.000;0.000;2022-12-07T05:39:06;1.83;;;0.52;;
35977;SDS011;22056;0.000;0.000;2022-12-07T05:41:32;2.38;;;0.60;;
35977;SDS011;22056;0.000;0.000;2022-12-07T05:44:17;3.80;;;0.65;;
35977;SDS011;22056;0.000;0.000;2022-12-07T05:46:43;0.60;;;0.50;;
35977;SDS011;22056;0.000;0.000;2022-12-07T05:49:09;0.93;;;0.57;;
35977;SDS011;22056;0.000;0.000;2022-12-07T05:51:36;1.60;;;0.57;;
35977;SDS011;22056;0.000;0.000;2022-12-07T05:54:02;1.80;;;0.50;;
35977;SDS011;22056;0.000;0.000;2022-12-07T05:56:28;1.73;;;0.60;;
35977;SDS011;22056;0.000;0.000;2022-12-07T05:58:54;0.98;;;0.50;;
35977;SDS011;22056;0.000;0.000;2022-12-07T06:01:39;1.73;;;0.70;;
35977;SDS011;22056;0.000;0.000;2022-12-07T06:04:06;2.78;;;0.55;;
35977;SDS011;22056;0.000;0.000;2022-12-07T06:06:32;1.45;;;0.73;;
35977;SDS011;22056;0.000;0.000;2022-12-07T06:08:58;2.17;;;0.70;;
35977;SDS011;22056;0.000;0.000;2022-12-07T06:11:24;1.63;;;0.55;;
35977;SDS011;22056;0.000;0.000;2022-12-07T06:14:09;1.88;;;0.60;;
35977;SDS011;22056;0.000;0.000;2022-12-07T06:16:35;0.75;;;0.60;;
35977;SDS011;22056;0.000;0.000;2022-12-07T06:19:01;1.90;;;0.63;;
35977;SDS011;22056;0.000;0.000;2022-12-07T06:21:27;2.42;;;0.82;;
35977;SDS011;22056;0.000;0.000;2022-12-07T06:23:53;1.35;;;0.60;;
35977;SDS011;22056;0.000;0.000;2022-12-07T06:26:20;3.20;;;0.63;;
35977;SDS011;22056;0.000;0.000;2022-12-07T06:28:46;1.58;;;0.70;;
35977;SDS011;22056;0.000;0.000;2022-12-07T06:31:12;1.83;;;0.65;;
35977;SDS011;22056;0.000;0.000;2022-12-07T06:33:38;3.85;;;0.60;;
35977;SDS011;22056;0.000;0.000;2022-12-07T06:36:05;1.95;;;0.65;;
35977;SDS011;22056;0.000;0.000;2022-12-07T06:38:31;2.03;;;0.73;;
35977;SDS011;22056;0.000;0.000;2022-12-07T06:40:57;2.08;;;0.47;;
35977;SDS011;22056;0.000;0.000;2022-12-07T06:43:23;2.17;;;0.85;;
35977;SDS011;22056;0.000;0.000;2022-12-07T06:45:49;2.55;;;0.40;;
35977;SDS011;22056;0.000;0.000;2022-12-07T06:48:16;3.05;;;0.60;;
35977;SDS011;22056;0.000;0.000;2022-12-07T06:50:44;3.10;;;0.60;;
35977;SDS011;22056;0.000;0.000;2022-12-07T06:53:10;1.13;;;0.50;;
35977;SDS011;22056;0.000;0.000;2022-12-07T06:55:36;1.67;;;0.63;;
35977;SDS011;22056;0.000;0.000;2022-12-07T06:58:02;2.38;;;0.60;;
35977;SDS011;22056;0.000;0.000;2022-12-07T07:00:29;1.70;;;0.55;;
35977;SDS011;22056;0.000;0.000;2022-12-07T07:02:55;3.75;;;0.73;;
35977;SDS011;22056;0.000;0.000;2022-12-07T07:05:21;3.35;;;0.70;;
35977;SDS011;22056;0.000;0.000;2022-12-07T07:07:51;3.17;;;0.82;;
35977;SDS011;22056;0.000;0.000;2022-12-07T07:10:17;1.55;;;0.75;;
35977;SDS011;22056;0.000;0.000;2022-12-07T07:12:43;3.55;;;1.00;;
35977;SDS011;22056;0.000;0.000;2022-12-07T07:15:09;2.58;;;0.70;;
35977;SDS011;22056;0.000;0.000;2022-12-07T07:17:36;2.97;;;0.80;;
35977;SDS011;22056;0.000;0.000;2022-12-07T07:20:03;2.60;;;0.80;;
35977;SDS011;22056;0.000;0.000;2022-12-07T07:22:29;3.90;;;0.90;;
35977;SDS011;22056;0.000;0.000;2022-12-07T07:24:55;3.95;;;0.73;;
35977;SDS011;22056;0.000;0.000;2022-12-07T07:27:21;2.00;;;0.70;;
35977;SDS011;22056;0.000;0.000;2022-12-07T07:29:47;3.20;;;0.82;;
35977;SDS011;22056;0.000;0.000;2022-12-07T07:32:14;4.55;;;0.80;;
35977;SDS011;22056;0.000;0.000;2022-12-07T07:34:40;3.25;;;0.80;;
35977;SDS011;22056;0.000;0.000;2022-12-07T07:37:06;2.75;;;0.77;;
35977;SDS011;22056;0.000;0.000;2022-12-07T07:39:32;2.00;;;0.88;;
35977;SDS011;22056;0.000;0.000;2022-12-07T07:41:58;2.88;;;0.82;;
35977;SDS011;22056;0.000;0.000;2022-12-07T07:44:25;2.67;;;0.90;;
35977;SDS011;22056;0.000;0.000;2022-12-07T07:46:51;3.13;;;1.00;;
35977;SDS011;22056;0.000;0.000;2022-12-07T07:49:17;3.47;;;0.85;;
35977;SDS011;22056;0.000;0.000;2022-12-07T07:51:43;2.83;;;1.00;;
35977;SDS011;22056;0.000;0.000;2022-12-07T07:54:10;2.70;;;0.80;;
35977;SDS011;22056;0.000;0.000;2022-12-07T07:56:36;4.15;;;0.93;;
35977;SDS011;22056;0.000;0.000;2022-12-07T07:59:02;3.80;;;0.70;;
35977;SDS011;22056;0.000;0.000;2022-12-07T08:01:28;2.97;;;0.68;;
35977;SDS011;22056;0.000;0.000;2022-12-07T08:03:54;1.67;;;0.60;;
35977;SDS011;22056;0.000;0.000;2022-12-07T08:06:20;2.95;;;0.80;;
35977;SDS011;22056;0.000;0.000;2022-12-07T08:08:47;2.70;;;0.80;;
35977;SDS011;22056;0.000;0.000;2022-12-07T08:11:13;1.83;;;0.80;;
35977;SDS011;22056;0.000;0.000;2022-12-07T08:13:39;2.60;;;0.90;;
35977;SDS011;22056;0.000;0.000;2022-12-07T08:16:06;2.97;;;0.80;;
35977;SDS011;22056;0.000;0.000;2022-12-07T08:18:39;4.28;;;1.02;;
35977;SDS011;22056;0.000;0.000;2022-12-07T08:21:06;5.50;;;1.10;;
35977;SDS011;22056;0.000;0.000;2022-12-07T08:23:33;2.22;;;0.85;;
35977;SDS011;22056;0.000;0.000;2022-12-07T08:26:00;3.05;;;0.98;;
35977;SDS011;22056;0.000;0.000;2022-12-07T08:28:27;4.65;;;1.15;;
35977;SDS011;22056;0.000;0.000;2022-12-07T08:30:58;6.15;;;1.50;;
35977;SDS011;22056;0.000;0.000;2022-12-07T08:33:24;3.75;;;0.98;;
35977;SDS011;22056;0.000;0.000;2022-12-07T08:35:51;3.28;;;0.80;;
35977;SDS011;22056;0.000;0.000;2022-12-07T08:38:17;4.28;;;0.68;;
35977;SDS011;22056;0.000;0.000;2022-12-07T08:40:43;4.53;;;1.00;;
35977;SDS011;22056;0.000;0.000;2022-12-07T08:43:09;4.20;;;0.80;;
35977;SDS011;22056;0.000;0.000;2022-12-07T08:45:35;6.65;;;1.10;;
35977;SDS011;22056;0.000;0.000;2022-12-07T08:48:03;4.88;;;0.88;;
35977;SDS011;22056;0.000;0.000;2022-12-07T08:50:30;2.35;;;1.10;;
35977;SDS011;22056;0.000;0.000;2022-12-07T08:52:57;1.77;;;0.73;;
35977;SDS011;22056;0.000;0.000;2022-12-07T08:55:24;6.70;;;1.15;;
35977;SDS011;22056;0.000;0.000;2022-12-07T08:57:51;3.85;;;1.08;;
35977;SDS011;22056;0.000;0.000;2022-12-07T09:00:17;3.08;;;0.90;;
35977;SDS011;22056;0.000;0.000;2022-12-07T09:02:44;3.40;;;0.90;;
35977;SDS011;22056;0.000;0.000;2022-12-07T09:05:11;3.70;;;1.00;;
35977;SDS011;22056;0.000;0.000;2022-12-07T09:07:37;3.95;;;0.80;;
35977;SDS011;22056;0.000;0.000;2022-12-07T09:10:04;2.58;;;0.90;;
35977;SDS011;22056;0.000;0.000;2022-12-07T09:12:30;2.85;;;0.85;;
35977;SDS011;22056;0.000;0.000;2022-12-07T09:14:57;4.60;;;1.02;;
35977;SDS011;22056;0.000;0.000;2022-12-07T09:17:23;5.40;;;0.93;;
35977;SDS011;22056;0.000;0.000;2022-12-07T09:19:49;3.83;;;1.33;;
35977;SDS011;22056;0.000;0.000;2022-12-07T09:22:15;5.22;;;1.00;;
35977;SDS011;22056;0.000;0.000;2022-12-07T09:24:41;5.03;;;1.05;;
35977;SDS011;22056;0.000;0.000;2022-12-07T09:27:09;2.88;;;0.80;;
35977;SDS011;22056;0.000;0.000;2022-12-07T09:29:35;2.72;;;0.80;;
35977;SDS011;22056;0.000;0.000;2022-12-07T09:32:02;5.43;;;1.10;;
35977;SDS011;22056;0.000;0.000;2022-12-07T09:34:30;5.35;;;0.80;;
35977;SDS011;22056;0.000;0.000;2022-12-07T09:36:57;2.60;;;0.80;;
35977;SDS011;22056;0.000;0.000;2022-12-07T09:39:23;2.28;;;0.90;;
35977;SDS011;22056;0.000;0.000;2022-12-07T09:41:50;3.22;;;0.80;;
35977;SDS011;22056;0.000;0.000;2022-12-07T09:44:23;3.90;;;0.90;;
35977;SDS011;22056;0.000;0.000;2022-12-07T09:46:49;2.28;;;0.77;;
35977;SDS011;22056;0.000;0.000;2022-12-07T09:49:18;3.17;;;0.80;;
35977;SDS011;22056;0.000;0.000;2022-12-07T09:51:45;5.55;;;1.02;;
35977;SDS011;22056;0.000;0.000;2022-12-07T09:54:12;4.25;;;0.98;;
35977;SDS011;22056;0.000;0.000;2022-12-07T09:56:39;3.72;;;0.90;;
35977;SDS011;22056;0.000;0.000;2022-12-07T09:59:05;4.32;;;0.98;;
35977;SDS011;22056;0.000;0.000;2022-12-07T10:01:32;4.95;;;1.15;;
35977;SDS011;22056;0.000;0.000;2022-12-07T10:04:21;1.88;;;0.80;;
35977;SDS011;22056;0.000;0.000;2022-12-07T10:06:46;3.70;;;1.00;;
35977;SDS011;22056;0.000;0.000;2022-12-07T10:09:14;2.47;;;0.80;;
35977;SDS011;22056;0.000;0.000;2022-12-07T10:12:13;3.38;;;0.90;;
35977;SDS011;22056;0.000;0.000;2022-12-07T10:14:34;2.47;;;0.80;;
35977;SDS011;22056;0.000;0.000;2022-12-07T10:17:02;5.75;;;0.88;;
35977;SDS011;22056;0.000;0.000;2022-12-07T10:19:29;3.97;;;0.80;;
35977;SDS011;22056;0.000;0.000;2022-12-07T10:24:28;2.83;;;0.93;;
35977;SDS011;22056;0.000;0.000;2022-12-07T10:26:54;3.55;;;0.73;;
35977;SDS011;22056;0.000;0.000;2022-12-07T10:32:33;5.18;;;1.05;;
35977;SDS011;22056;0.000;0.000;2022-12-07T10:34:35;3.60;;;0.95;;
35977;SDS011;22056;0.000;0.000;2022-12-07T10:39:50;1.65;;;0.70;;
35977;SDS011;22056;0.000;0.000;2022-12-07T10:42:18;2.25;;;0.57;;
35977;SDS011;22056;0.000;0.000;2022-12-07T10:44:45;2.35;;;0.80;;
35977;SDS011;22056;0.000;0.000;2022-12-07T10:49:45;2.85;;;0.90;;
35977;SDS011;22056;0.000;0.000;2022-12-07T10:57:10;4.20;;;1.20;;
35977;SDS011;22056;0.000;0.000;2022-12-07T11:00:04;3.28;;;0.90;;
35977;SDS011;22056;0.000;0.000;2022-12-07T11:05:19;2.88;;;1.02;;
35977;SDS011;22056;0.000;0.000;2022-12-07T11:07:55;4.90;;;1.13;;
35977;SDS011;22056;0.000;0.000;2022-12-07T11:15:39;3.70;;;1.00;;
35977;SDS011;22056;0.000;0.000;2022-12-07T11:20:44;5.85;;;1.55;;
35977;SDS011;22056;0.000;0.000;2022-12-07T11:26:08;3.22;;;0.75;;
35977;SDS011;22056;0.000;0.000;2022-12-07T11:28:50;5.22;;;1.08;;
35977;SDS011;22056;0.000;0.000;2022-12-07T11:34:08;4.25;;;1.10;;
35977;SDS011;22056;0.000;0.000;2022-12-07T11:39:59;3.95;;;0.77;;
35977;SDS011;22056;0.000;0.000;2022-12-07T11:42:31;4.20;;;0.80;;
35977;SDS011;22056;0.000;0.000;2022-12-07T11:45:02;2.92;;;0.80;;
35977;SDS011;22056;0.000;0.000;2022-12-07T11:52:53;4.55;;;1.45;;
35977;SDS011;22056;0.000;0.000;2022-12-07T11:58:03;2.70;;;1.10;;
35977;SDS011;22056;0.000;0.000;2022-12-07T12:00:30;4.03;;;0.83;;
35977;SDS011;22056;0.000;0.000;2022-12-07T12:05:22;1.83;;;0.93;;
35977;SDS011;22056;0.000;0.000;2022-12-07T12:07:52;4.10;;;1.00;;
35977;SDS011;22056;0.000;0.000;2022-12-07T12:10:22;2.45;;;0.88;;
35977;SDS011;22056;0.000;0.000;2022-12-07T12:12:56;3.83;;;0.80;;
35977;SDS011;22056;0.000;0.000;2022-12-07T12:18:15;3.45;;;0.80;;
35977;SDS011;22056;0.000;0.000;2022-12-07T12:20:52;2.78;;;0.77;;
35977;SDS011;22056;0.000;0.000;2022-12-07T12:25:53;2.17;;;1.00;;
35977;SDS011;22056;0.000;0.000;2022-12-07T12:28:35;2.90;;;1.10;;
35977;SDS011;22056;0.000;0.000;2022-12-07T12:33:31;4.68;;;1.17;;
35977;SDS011;22056;0.000;0.000;2022-12-07T12:38:49;4.60;;;0.90;;
35977;SDS011;22056;0.000;0.000;2022-12-07T12:43:59;2.08;;;1.00;;
35977;SDS011;22056;0.000;0.000;2022-12-07T12:48:57;3.42;;;0.82;;
35977;SDS011;22056;0.000;0.000;2022-12-07T12:51:41;5.57;;;1.02;;
35977;SDS011;22056;0.000;0.000;2022-12-07T12:54:12;3.10;;;1.20;;
35977;SDS011;22056;0.000;0.000;2022-12-07T12:56:41;3.88;;;1.20;;
35977;SDS011;22056;0.000;0.000;2022-12-07T13:01:51;2.17;;;0.85;;
35977;SDS011;22056;0.000;0.000;2022-12-07T13:06:46;5.28;;;1.33;;
35977;SDS011;22056;0.000;0.000;2022-12-07T13:09:23;4.07;;;1.00;;
35977;SDS011;22056;0.000;0.000;2022-12-07T13:11:50;3.17;;;1.33;;
35977;SDS011;22056;0.000;0.000;2022-12-07T13:20:19;3.50;;;1.13;;
35977;SDS011;22056;0.000;0.000;2022-12-07T13:22:57;2.72;;;0.80;;
35977;SDS011;22056;0.000;0.000;2022-12-07T13:25:30;3.55;;;1.02;;
35977;SDS011;22056;0.000;0.000;2022-12-07T13:28:07;3.13;;;1.00;;
35977;SDS011;22056;0.000;0.000;2022-12-07T13:30:40;2.85;;;0.98;;
35977;SDS011;22056;0.000;0.000;2022-12-07T13:33:09;7.07;;;1.10;;
35977;SDS011;22056;0.000;0.000;2022-12-07T13:35:36;5.88;;;1.17;;
35977;SDS011;22056;0.000;0.000;2022-12-07T13:38:04;5.53;;;1.23;;
35977;SDS011;22056;0.000;0.000;2022-12-07T13:40:32;7.60;;;1.15;;
35977;SDS011;22056;0.000;0.000;2022-12-07T13:43:02;5.47;;;1.27;;
35977;SDS011;22056;0.000;0.000;2022-12-07T13:45:30;4.68;;;1.02;;
35977;SDS011;22056;0.000;0.000;2022-12-07T13:50:52;6.57;;;1.25;;
35977;SDS011;22056;0.000;0.000;2022-12-07T13:53:19;7.05;;;1.10;;
35977;SDS011;22056;0.000;0.000;2022-12-07T13:55:45;4.13;;;1.20;;
35977;SDS011;22056;0.000;0.000;2022-12-07T13:58:12;6.68;;;1.15;;
35977;SDS011;22056;0.000;0.000;2022-12-07T14:00:39;8.25;;;1.20;;
35977;SDS011;22056;0.000;0.000;2022-12-07T14:05:38;5.50;;;1.40;;
35977;SDS011;22056;0.000;0.000;2022-12-07T14:08:05;5.50;;;1.45;;
35977;SDS011;22056;0.000;0.000;2022-12-07T14:10:35;8.38;;;1.00;;
35977;SDS011;22056;0.000;0.000;2022-12-07T14:13:28;2.90;;;0.95;;
35977;SDS011;22056;0.000;0.000;2022-12-07T14:15:51;3.72;;;1.17;;
35977;SDS011;22056;0.000;0.000;2022-12-07T14:18:25;6.38;;;1.08;;
35977;SDS011;22056;0.000;0.000;2022-12-07T14:21:02;11.13;;;1.60;;
35977;SDS011;22056;0.000;0.000;2022-12-07T14:23:28;5.05;;;1.00;;
35977;SDS011;22056;0.000;0.000;2022-12-07T14:26:04;8.95;;;1.27;;
35977;SDS011;22056;0.000;0.000;2022-12-07T14:28:34;6.72;;;1.45;;
35977;SDS011;22056;0.000;0.000;2022-12-07T14:31:01;4.35;;;1.27;;
35977;SDS011;22056;0.000;0.000;2022-12-07T14:33:27;4.22;;;1.35;;
35977;SDS011;22056;0.000;0.000;2022-12-07T14:35:53;7.03;;;1.13;;
35977;SDS011;22056;0.000;0.000;2022-12-07T14:38:21;3.63;;;1.35;;
35977;SDS011;22056;0.000;0.000;2022-12-07T14:40:48;6.53;;;1.45;;
35977;SDS011;22056;0.000;0.000;2022-12-07T14:43:15;2.58;;;0.80;;
35977;SDS011;22056;0.000;0.000;2022-12-07T14:45:42;6.72;;;1.17;;
35977;SDS011;22056;0.000;0.000;2022-12-07T14:48:12;7.93;;;1.50;;
35977;SDS011;22056;0.000;0.000;2022-12-07T14:50:41;3.00;;;1.05;;
35977;SDS011;22056;0.000;0.000;2022-12-07T14:53:14;3.95;;;1.13;;
35977;SDS011;22056;0.000;0.000;2022-12-07T14:55:41;4.60;;;1.13;;
35977;SDS011;22056;0.000;0.000;2022-12-07T14:58:12;3.67;;;0.85;;
35977;SDS011;22056;0.000;0.000;2022-12-07T15:00:39;4.57;;;1.13;;
35977;SDS011;22056;0.000;0.000;2022-12-07T15:03:05;6.07;;;1.25;;
35977;SDS011;22056;0.000;0.000;2022-12-07T15:05:32;4.40;;;1.15;;
35977;SDS011;22056;0.000;0.000;2022-12-07T15:07:58;3.80;;;1.00;;
35977;SDS011;22056;0.000;0.000;2022-12-07T15:10:26;5.82;;;1.08;;
35977;SDS011;22056;0.000;0.000;2022-12-07T15:12:55;5.45;;;1.40;;
35977;SDS011;22056;0.000;0.000;2022-12-07T15:15:41;4.20;;;1.38;;
35977;SDS011;22056;0.000;0.000;2022-12-07T15:18:07;5.30;;;1.40;;
35977;SDS011;22056;0.000;0.000;2022-12-07T15:20:33;3.85;;;1.23;;
35977;SDS011;22056;0.000;0.000;2022-12-07T15:22:59;5.43;;;1.30;;
35977;SDS011;22056;0.000;0.000;2022-12-07T15:25:25;5.53;;;1.27;;
35977;SDS011;22056;0.000;0.000;2022-12-07T15:27:52;4.68;;;1.20;;
35977;SDS011;22056;0.000;0.000;2022-12-07T15:30:18;6.07;;;1.23;;
35977;SDS011;22056;0.000;0.000;2022-12-07T15:32:48;3.10;;;0.95;;
35977;SDS011;22056;0.000;0.000;2022-12-07T15:35:14;3.25;;;1.02;;
35977;SDS011;22056;0.000;0.000;2022-12-07T15:37:40;8.30;;;1.20;;
35977;SDS011;22056;0.000;0.000;2022-12-07T15:40:07;4.20;;;0.80;;
35977;SDS011;22056;0.000;0.000;2022-12-07T15:42:33;4.15;;;1.00;;
35977;SDS011;22056;0.000;0.000;2022-12-07T15:44:59;3.88;;;1.08;;
35977;SDS011;22056;0.000;0.000;2022-12-07T15:47:29;3.83;;;1.10;;
35977;SDS011;22056;0.000;0.000;2022-12-07T15:49:55;4.43;;;0.95;;
35977;SDS011;22056;0.000;0.000;2022-12-07T15:52:21;5.25;;;1.35;;
35977;SDS011;22056;0.000;0.000;2022-12-07T15:54:47;3.28;;;0.95;;
35977;SDS011;22056;0.000;0.000;2022-12-07T15:57:14;5.40;;;1.30;;
35977;SDS011;22056;0.000;0.000;2022-12-07T15:59:40;4.10;;;0.82;;
35977;SDS011;22056;0.000;0.000;2022-12-07T16:02:07;5.40;;;1.10;;
35977;SDS011;22056;0.000;0.000;2022-12-07T16:04:35;8.05;;;1.20;;
35977;SDS011;22056;0.000;0.000;2022-12-07T16:07:01;7.25;;;1.42;;
35977;SDS011;22056;0.000;0.000;2022-12-07T16:09:27;7.82;;;1.40;;
35977;SDS011;22056;0.000;0.000;2022-12-07T16:11:53;6.07;;;0.80;;
35977;SDS011;22056;0.000;0.000;2022-12-07T16:14:20;4.75;;;0.98;;
35977;SDS011;22056;0.000;0.000;2022-12-07T16:16:46;2.80;;;0.80;;
35977;SDS011;22056;0.000;0.000;2022-12-07T16:19:13;4.82;;;1.23;;
35977;SDS011;22056;0.000;0.000;2022-12-07T16:21:39;4.40;;;0.95;;
35977;SDS011;22056;0.000;0.000;2022-12-07T16:24:06;5.75;;;0.95;;
35977;SDS011;22056;0.000;0.000;2022-12-07T16:26:32;2.55;;;0.80;;
35977;SDS011;22056;0.000;0.000;2022-12-07T16:28:59;4.90;;;1.08;;
35977;SDS011;22056;0.000;0.000;2022-12-07T16:31:25;4.55;;;1.00;;
35977;SDS011;22056;0.000;0.000;2022-12-07T16:33:53;5.25;;;0.88;;
35977;SDS011;22056;0.000;0.000;2022-12-07T16:36:19;2.95;;;0.90;;
35977;SDS011;22056;0.000;0.000;2022-12-07T16:38:47;5.25;;;1.00;;
35977;SDS011;22056;0.000;0.000;2022-12-07T16:41:13;7.07;;;1.30;;
35977;SDS011;22056;0.000;0.000;2022-12-07T16:43:40;3.63;;;0.85;;
35977;SDS011;22056;0.000;0.000;2022-12-07T16:46:06;2.42;;;0.90;;
35977;SDS011;22056;0.000;0.000;2022-12-07T16:48:36;1.92;;;0.90;;
35977;SDS011;22056;0.000;0.000;2022-12-07T16:51:04;3.83;;;1.00;;
35977;SDS011;22056;0.000;0.000;2022-12-07T16:53:30;4.53;;;1.63;;